Minneapolis, Minnesota
Traffic Map
Current Weather Conditions
Minneapolis, Minnesota
Broken Clouds
Broken Clouds
73°
Feels Like: 73°
Wind Chill: 73° Ceiling: 25000
Heat Index: 73° Visibility: 10mi
Dew Point: 55° Wind: 16mph
Humidity: 53% Direction: 260° (W)
Pressure: 30.05in Gusts: 22mph
Raw Report DataKMSP 251953Z 26014G19KT 10SM FEW030 BKN250 23/13 A3005 RMK AO2 SLP174 T02280128
Traffic Incident Summary
Active as of:
Severity:
Category:
InformationThere was an issue retrieving the traffic information for this location. Please try a different location or try again shortly.
Advertisements
Track Severe Weather on mobile